Погода Монакона 2 недели

Монако

22 июля-04 августа
  • 22июля
    Сегодня
    +22°
    +31°
    Ясно и безоблачно
    ВремяПогодаТемператураВлажностьДавлениеВетер, м/сВероятность осадков
    02:00Ясно и безоблачно+22°C75 %753 мм2.0 м/с6 %
    05:00Ясно и безоблачно+21°C73 %753 мм2.3 м/с9 %
    08:00Ясно и безоблачно+24°C62 %753 мм2.8 м/с1 %
    11:00Ясно и безоблачно+30°C47 %755 мм2.3 м/с2 %
    14:00Ясно и безоблачно+31°C45 %755 мм3.5 м/с6 %
    17:00Ясно и безоблачно+30°C51 %755 мм3.2 м/с7 %
    20:00Ясно и безоблачно+29°C51 %755 мм1.6 м/с4 %
    23:00Ясно и безоблачно+26°C59 %756 мм1.6 м/с2 %
  • 23июля
    Вторник
    +22°
    +30°
    Ясно и безоблачно
    ВремяПогодаТемператураВлажностьДавлениеВетер, м/сВероятность осадков
    02:00Ясно и безоблачно+24°C65 %756 мм1.7 м/с2 %
    05:00Ясно и безоблачно+23°C69 %756 мм1.1 м/с2 %
    08:00Ясно и безоблачно+26°C61 %756 мм1.3 м/с2 %
    11:00Ясно и безоблачно+30°C63 %757 мм2.3 м/с2 %
    14:00Ясно и безоблачно+30°C57 %756 мм2.6 м/с5 %
    17:00Ясно и безоблачно+30°C56 %756 мм2.8 м/с5 %
    20:00Ясно и безоблачно+28°C66 %755 мм0.5 м/с2 %
    23:00Ясно и безоблачно+25°C78 %755 мм1.6 м/с2 %
  • 24июля
    Среда
    +23°
    +30°
    Практически безоблачно
    ВремяПогодаТемператураВлажностьДавлениеВетер, м/сВероятность осадков
    02:00Ясно и безоблачно+24°C76 %755 мм1.3 м/с2 %
    05:00Ясно и безоблачно+23°C75 %754 мм1.7 м/с2 %
    08:00Ясно и безоблачно+26°C65 %754 мм1.1 м/с2 %
    11:00Практически безоблачно+29°C64 %754 мм2.5 м/с2 %
    14:00Практически безоблачно+29°C65 %754 мм2.3 м/с18 %
    17:00Облачно с прояснениями+30°C64 %753 мм1.7 м/с24 %
    20:00Ясно и безоблачно+28°C65 %753 мм1.5 м/с2 %
    23:00Ясно и безоблачно+26°C73 %753 мм0.8 м/с2 %
  • 25июля
    Четверг
    +23°
    +30°
    Небольшая облачность и лёгкий дождик
    ВремяПогодаТемператураВлажностьДавлениеВетер, м/сВероятность осадков
    02:00Ясно и безоблачно+25°C76 %753 мм1.3 м/с2 %
    05:00Практически безоблачно+24°C74 %752 мм1.8 м/с2 %
    08:00Ясно и безоблачно+26°C66 %753 мм1.4 м/с2 %
    11:00Ясно и безоблачно+29°C62 %754 мм2.4 м/с5 %
    14:00Небольшая облачность и лёгкий дождик+29°C58 %754 мм2.6 м/с34 %
    17:00Ясно и безоблачно+29°C54 %753 мм2.0 м/с31 %
    20:00Ясно и безоблачно+28°C60 %753 мм1.6 м/с7 %
    23:00Практически безоблачно+26°C67 %753 мм1.1 м/с2 %
  • 26июля
    Пятница
    +23°
    +30°
    Ясно и безоблачно
    ВремяПогодаТемператураВлажностьДавлениеВетер, м/сВероятность осадков
    02:00Ясно и безоблачно+24°C72 %753 мм1.2 м/с2 %
    05:00Ясно и безоблачно+24°C74 %753 мм1.8 м/с2 %
    08:00Ясно и безоблачно+26°C65 %754 мм1.6 м/с2 %
    11:00Ясно и безоблачно+29°C58 %755 мм3.2 м/с3 %
    14:00Ясно и безоблачно+29°C58 %755 мм2.9 м/с10 %
    17:00Практически безоблачно+30°C52 %755 мм2.2 м/с3 %
    20:00Ясно и безоблачно+28°C58 %755 мм1.1 м/с2 %
    23:00Ясно и безоблачно+25°C69 %755 мм0.9 м/с2 %
Мы используем cookies
Соглашаюсь